createdAt,value
2019-05-20T00:00:55.814Z,69.49
2019-05-20T00:03:29.930Z,69.85
2019-05-20T00:06:06.655Z,69.86
2019-05-20T00:08:40.768Z,69.82
2019-05-20T00:11:14.786Z,69.89
2019-05-20T00:13:48.672Z,70.48
2019-05-20T00:16:25.054Z,70.94
2019-05-20T00:18:59.320Z,70.69
2019-05-20T00:21:33.059Z,70.41
2019-05-20T00:24:07.083Z,71.11
2019-05-20T00:26:40.759Z,71.59
2019-05-20T00:29:27.797Z,72.28
2019-05-20T00:32:01.646Z,72.66
2019-05-20T00:34:35.843Z,73.23
2019-05-20T00:37:09.730Z,73.38
2019-05-20T00:39:43.608Z,73.75
2019-05-20T00:42:17.637Z,74.29
2019-05-20T00:44:51.784Z,74.65
2019-05-20T00:47:29.597Z,75.07
2019-05-20T00:50:03.708Z,74.92
2019-05-20T00:52:39.643Z,75.90
2019-05-20T00:55:26.569Z,76.43
2019-05-20T00:58:02.918Z,76.52
2019-05-20T01:00:37.235Z,76.46
2019-05-20T01:03:11.477Z,77.15
2019-05-20T01:05:47.108Z,77.42
2019-05-20T01:08:20.890Z,77.70
2019-05-20T01:10:55.308Z,77.97
2019-05-20T01:13:29.966Z,78.24
2019-05-20T01:16:13.915Z,78.75
2019-05-20T01:18:51.600Z,78.29
2019-05-20T01:21:25.303Z,78.95
2019-05-20T01:23:58.966Z,79.64
2019-05-20T01:26:32.660Z,80.07
2019-05-20T01:29:08.183Z,80.54
2019-05-20T01:31:41.874Z,80.56
2019-05-20T01:34:15.580Z,80.72
2019-05-20T01:37:07.903Z,81.87
2019-05-20T01:39:43.148Z,81.52
2019-05-20T01:42:16.935Z,81.08
2019-05-20T01:44:51.061Z,81.28
2019-05-20T01:47:26.964Z,81.71
2019-05-20T01:50:00.863Z,82.10
2019-05-20T01:52:35.670Z,82.93
2019-05-20T01:55:10.389Z,83.49
2019-05-20T01:57:45.225Z,83.89
2019-05-20T02:00:19.169Z,84.78
2019-05-20T02:02:54.377Z,84.94
2019-05-20T02:05:28.373Z,85.20
2019-05-20T02:08:02.093Z,85.49
2019-05-20T02:10:37.787Z,85.67
2019-05-20T02:13:11.816Z,85.76
2019-05-20T02:15:55.796Z,86.47
2019-05-20T02:18:29.680Z,86.87
2019-05-20T02:21:04.785Z,88.23
2019-05-20T02:23:38.620Z,88.21
2019-05-20T02:26:13.105Z,89.24
2019-05-20T02:28:46.782Z,89.43
2019-05-20T02:31:21.264Z,89.41
2019-05-20T02:33:57.190Z,89.39
2019-05-20T02:36:31.173Z,90.22
2019-05-20T02:39:06.712Z,90.18
2019-05-20T02:41:41.865Z,90.34
2019-05-20T02:44:15.627Z,91.18
2019-05-20T02:46:49.495Z,91.26
2019-05-20T02:49:25.435Z,91.36
2019-05-20T02:51:59.152Z,91.67
2019-05-20T02:54:34.381Z,92.21
2019-05-20T02:57:08.447Z,92.50
2019-05-20T02:59:44.197Z,92.23
2019-05-20T03:02:17.984Z,92.45
2019-05-20T03:04:51.813Z,92.34
2019-05-20T03:07:25.578Z,92.70
2019-05-20T03:09:59.241Z,92.87
2019-05-20T03:12:33.000Z,93.22
2019-05-20T03:15:06.840Z,93.03
2019-05-20T03:17:40.680Z,93.83
2019-05-20T03:20:16.175Z,94.07
2019-05-20T03:22:49.990Z,94.04
2019-05-20T03:25:23.669Z,93.12
2019-05-20T03:28:02.556Z,92.65
2019-05-20T03:30:36.294Z,93.23
2019-05-20T03:33:10.351Z,93.35
2019-05-20T03:35:45.262Z,94.52
2019-05-20T03:38:19.127Z,95.01
2019-05-20T03:40:52.890Z,95.22
2019-05-20T03:43:27.792Z,94.93
2019-05-20T03:46:01.945Z,95.30
2019-05-20T03:48:36.870Z,95.26
2019-05-20T03:51:10.594Z,95.49
2019-05-20T03:53:44.884Z,95.83
2019-05-20T03:56:18.862Z,95.62
2019-05-20T03:58:54.834Z,94.93
2019-05-20T04:01:28.653Z,95.16
2019-05-20T04:04:02.537Z,94.62
2019-05-20T04:06:37.400Z,94.41
2019-05-20T04:09:11.410Z,94.25
2019-05-20T04:11:45.048Z,93.89
2019-05-20T04:14:19.849Z,93.46
2019-05-20T04:16:54.670Z,93.30
2019-05-20T04:19:28.473Z,92.60
2019-05-20T04:22:03.409Z,92.33
2019-05-20T04:24:39.977Z,90.90
2019-05-20T04:27:13.674Z,91.04
2019-05-20T04:29:48.919Z,90.69
2019-05-20T04:32:22.734Z,90.48
2019-05-20T04:34:58.989Z,88.59
2019-05-20T04:37:32.712Z,88.22
2019-05-20T04:40:06.607Z,87.74
2019-05-20T04:42:43.699Z,87.25
2019-05-20T04:45:19.971Z,85.66
2019-05-20T04:47:56.647Z,84.30
2019-05-20T04:50:33.614Z,83.38
2019-05-20T04:53:07.726Z,84.27
2019-05-20T04:55:41.523Z,84.81
2019-05-20T04:58:15.240Z,84.04
2019-05-20T05:00:59.998Z,83.45
2019-05-20T05:03:36.560Z,83.45
2019-05-20T05:06:10.479Z,82.36
2019-05-20T05:08:44.518Z,81.95
2019-05-20T05:11:19.385Z,82.11
2019-05-20T05:13:54.679Z,80.98
2019-05-20T05:16:32.057Z,80.37
2019-05-20T05:19:07.402Z,79.57
2019-05-20T05:21:42.739Z,78.13
2019-05-20T05:24:18.222Z,76.70
2019-05-20T05:26:51.830Z,75.20
2019-05-20T05:29:26.730Z,75.37
2019-05-20T05:32:01.552Z,73.97
2019-05-20T05:34:37.708Z,74.23
2019-05-20T05:37:11.525Z,74.26
2019-05-20T05:39:45.607Z,72.49
2019-05-20T05:42:20.474Z,69.77
2019-05-20T05:44:54.115Z,65.14
2019-05-20T05:47:27.773Z,60.21
2019-05-20T05:50:02.719Z,58.45
2019-05-20T05:52:39.026Z,56.46
2019-05-20T05:55:12.856Z,56.78
2019-05-20T05:57:47.723Z,56.83
2019-05-20T06:00:23.840Z,53.68
2019-05-20T06:02:58.833Z,52.95
2019-05-20T06:05:33.015Z,51.58
2019-05-20T06:08:06.945Z,51.40
2019-05-20T06:10:40.754Z,52.06
2019-05-20T06:13:14.701Z,52.18
2019-05-20T06:15:48.516Z,50.56
2019-05-20T06:18:24.014Z,48.66
2019-05-20T06:21:00.602Z,48.92
2019-05-20T06:23:35.876Z,47.77
2019-05-20T06:26:09.754Z,48.22
2019-05-20T06:28:43.758Z,47.45
2019-05-20T06:31:17.513Z,46.21
2019-05-20T06:33:54.639Z,46.31
2019-05-20T06:36:28.620Z,47.00
2019-05-20T06:39:14.027Z,47.13
2019-05-20T06:41:50.115Z,45.69
2019-05-20T06:44:23.899Z,45.22
2019-05-20T06:46:57.937Z,45.68
2019-05-20T06:49:33.251Z,44.21
2019-05-20T06:52:07.099Z,44.16
2019-05-20T06:54:40.757Z,43.73
2019-05-20T06:57:16.517Z,43.84
2019-05-20T06:59:51.242Z,44.38
2019-05-20T07:02:25.150Z,42.55
2019-05-20T07:04:59.921Z,42.87
2019-05-20T07:07:35.434Z,43.40
2019-05-20T07:10:26.168Z,42.37
2019-05-20T07:13:00.973Z,42.95
2019-05-20T07:15:36.104Z,42.55
2019-05-20T07:18:09.854Z,42.28
2019-05-20T07:20:43.513Z,41.50
2019-05-20T07:23:17.545Z,40.99
2019-05-20T07:25:51.418Z,42.94
2019-05-20T07:28:25.363Z,44.81
2019-05-20T07:31:00.182Z,43.77
2019-05-20T07:33:34.079Z,42.54
2019-05-20T07:36:10.070Z,42.79
2019-05-20T07:38:44.788Z,42.04
2019-05-20T07:41:18.988Z,42.85
2019-05-20T07:43:54.336Z,43.67
2019-05-20T07:46:29.617Z,44.54
2019-05-20T07:49:10.483Z,42.87
2019-05-20T07:51:46.598Z,43.36
2019-05-20T07:54:23.806Z,44.32
2019-05-20T07:57:02.193Z,43.86
2019-05-20T07:59:40.405Z,42.85
2019-05-20T08:02:15.242Z,43.29
2019-05-20T08:04:51.629Z,43.82
2019-05-20T08:07:41.402Z,43.27
2019-05-20T08:10:02.512Z,42.38
2019-05-20T08:12:36.106Z,43.88
2019-05-20T08:15:11.045Z,44.56
2019-05-20T08:17:47.012Z,44.56
2019-05-20T08:20:21.605Z,43.83
2019-05-20T08:22:55.299Z,44.33
2019-05-20T08:25:30.874Z,44.94
2019-05-20T08:28:07.042Z,44.36
2019-05-20T08:30:42.064Z,46.39
2019-05-20T08:33:15.771Z,44.88
2019-05-20T08:35:49.751Z,44.13
2019-05-20T08:38:23.494Z,45.68
2019-05-20T08:40:58.968Z,46.00
2019-05-20T08:43:33.260Z,46.31
2019-05-20T08:46:07.324Z,45.44
2019-05-20T08:48:41.495Z,44.66
2019-05-20T08:51:15.294Z,44.78
2019-05-20T08:53:49.361Z,44.97
2019-05-20T08:56:23.048Z,45.49
2019-05-20T08:58:56.941Z,45.11
2019-05-20T09:01:30.814Z,45.45
2019-05-20T09:04:05.577Z,46.44
2019-05-20T09:06:41.926Z,46.70
2019-05-20T09:09:15.612Z,47.46
2019-05-20T09:11:51.094Z,47.73
2019-05-20T09:14:24.794Z,49.38
2019-05-20T09:16:58.496Z,50.85
2019-05-20T09:19:32.717Z,49.89
2019-05-20T09:22:06.537Z,49.86
2019-05-20T09:24:40.567Z,49.96
2019-05-20T09:27:14.459Z,50.53
2019-05-20T09:29:49.391Z,52.46
2019-05-20T09:32:23.931Z,52.70
2019-05-20T09:34:59.502Z,53.65
2019-05-20T09:37:33.266Z,52.10
2019-05-20T09:40:08.672Z,52.28
2019-05-20T09:42:42.409Z,51.40
2019-05-20T09:45:16.451Z,52.72
2019-05-20T09:47:50.330Z,52.72
2019-05-20T09:50:24.142Z,52.43
2019-05-20T09:52:58.589Z,50.67
2019-05-20T09:55:32.673Z,49.20
2019-05-20T09:58:07.899Z,48.78
2019-05-20T10:00:42.822Z,50.10
2019-05-20T10:03:16.454Z,48.20
2019-05-20T10:05:50.225Z,48.13
2019-05-20T10:08:37.539Z,47.60
2019-05-20T10:11:00.482Z,47.10
2019-05-20T10:13:34.365Z,47.38
2019-05-20T10:16:09.438Z,47.29
2019-05-20T10:18:44.741Z,45.97
2019-05-20T10:21:18.534Z,45.91
2019-05-20T10:23:52.506Z,45.76
2019-05-20T10:26:26.269Z,45.53
2019-05-20T10:29:00.398Z,44.93
2019-05-20T10:31:34.179Z,45.67
2019-05-20T10:34:09.114Z,45.26
2019-05-20T10:36:43.915Z,44.55
2019-05-20T10:39:18.674Z,44.27
2019-05-20T10:41:52.424Z,42.98
2019-05-20T10:44:27.818Z,43.84
2019-05-20T10:47:03.213Z,43.76
2019-05-20T10:49:37.162Z,42.69
2019-05-20T10:52:10.999Z,42.52
2019-05-20T10:54:45.909Z,43.03
2019-05-20T10:57:20.082Z,43.76
2019-05-20T10:59:53.747Z,44.97
2019-05-20T11:02:31.157Z,46.23
2019-05-20T11:05:03.360Z,47.11
2019-05-20T11:07:37.227Z,47.18
2019-05-20T11:10:11.560Z,48.03
2019-05-20T11:12:45.567Z,47.75
2019-05-20T11:15:21.130Z,47.34
2019-05-20T11:17:55.087Z,44.41
2019-05-20T11:20:30.265Z,44.35
2019-05-20T11:23:04.156Z,45.15
2019-05-20T11:25:38.914Z,45.21
2019-05-20T11:28:14.822Z,44.58
2019-05-20T11:30:48.680Z,44.46
2019-05-20T11:33:22.855Z,44.33
2019-05-20T11:35:58.007Z,44.74
2019-05-20T11:38:32.564Z,44.17
2019-05-20T11:41:06.339Z,42.49
2019-05-20T11:43:39.916Z,42.48
2019-05-20T11:46:13.989Z,42.95
2019-05-20T11:48:47.829Z,44.94
2019-05-20T11:51:22.998Z,43.72
2019-05-20T11:53:58.247Z,44.11
2019-05-20T11:56:32.971Z,43.96
2019-05-20T11:59:06.783Z,44.15
2019-05-20T12:01:43.870Z,42.91
2019-05-20T12:04:21.151Z,43.59
2019-05-20T12:06:55.389Z,43.45
2019-05-20T12:09:30.608Z,43.57
2019-05-20T12:12:05.566Z,45.15
2019-05-20T12:14:41.482Z,43.61
2019-05-20T12:17:17.134Z,42.86
2019-05-20T12:19:50.958Z,44.38
2019-05-20T12:22:24.951Z,42.92
2019-05-20T12:24:58.707Z,42.26
2019-05-20T12:27:34.222Z,43.11
2019-05-20T12:30:08.752Z,42.66
2019-05-20T12:32:42.613Z,42.46
2019-05-20T12:35:17.792Z,42.36
2019-05-20T12:37:52.018Z,42.29
2019-05-20T12:40:26.495Z,42.78
2019-05-20T12:43:00.473Z,43.65
2019-05-20T12:45:36.123Z,43.11
2019-05-20T12:48:11.033Z,44.35
2019-05-20T12:50:46.707Z,44.53
2019-05-20T12:53:20.569Z,44.49
2019-05-20T12:55:54.657Z,44.24
2019-05-20T12:58:29.379Z,44.66
2019-05-20T13:01:03.465Z,45.63
2019-05-20T13:03:39.450Z,45.80
2019-05-20T13:06:14.345Z,45.16
2019-05-20T13:08:48.942Z,44.32
2019-05-20T13:11:24.821Z,44.04
2019-05-20T13:13:58.644Z,44.14
2019-05-20T13:16:32.771Z,44.11
2019-05-20T13:19:06.684Z,44.76
2019-05-20T13:21:40.696Z,44.62
2019-05-20T13:24:14.485Z,44.64
2019-05-20T13:26:50.031Z,44.00
2019-05-20T13:29:23.644Z,44.03
2019-05-20T13:32:00.666Z,44.55
2019-05-20T13:34:34.668Z,44.41
2019-05-20T13:37:09.845Z,41.88
2019-05-20T13:39:44.077Z,41.55
2019-05-20T13:42:17.861Z,41.79
2019-05-20T13:44:51.674Z,42.16
2019-05-20T13:47:27.146Z,42.69
2019-05-20T13:50:00.856Z,43.51
2019-05-20T13:52:36.491Z,43.79
2019-05-20T13:55:11.098Z,43.29
2019-05-20T13:57:45.346Z,44.49
2019-05-20T14:00:20.322Z,43.91
2019-05-20T14:02:54.515Z,43.86
2019-05-20T14:05:29.226Z,43.70
2019-05-20T14:08:03.468Z,44.75
2019-05-20T14:10:37.251Z,44.01
2019-05-20T14:13:21.394Z,44.36
2019-05-20T14:15:57.354Z,43.89
2019-05-20T14:18:31.079Z,43.68
2019-05-20T14:21:04.866Z,44.01
2019-05-20T14:23:40.333Z,43.29
2019-05-20T14:26:14.114Z,43.14
2019-05-20T14:28:49.665Z,43.90
2019-05-20T14:31:23.577Z,44.56
2019-05-20T14:34:00.145Z,44.56
2019-05-20T14:36:39.882Z,44.66
2019-05-20T14:39:09.792Z,45.21
2019-05-20T14:41:44.821Z,44.81
2019-05-20T14:44:18.916Z,44.45
2019-05-20T14:46:53.105Z,44.53
2019-05-20T14:49:26.923Z,43.73
2019-05-20T14:52:00.830Z,43.81
2019-05-20T14:54:36.344Z,43.51
2019-05-20T14:57:10.155Z,42.48
2019-05-20T14:59:47.440Z,42.94
2019-05-20T15:02:23.019Z,42.50
2019-05-20T15:04:56.905Z,42.62
2019-05-20T15:07:32.189Z,43.74
2019-05-20T15:10:06.870Z,42.99
2019-05-20T15:12:40.739Z,42.49
2019-05-20T15:15:16.916Z,41.89
2019-05-20T15:17:58.013Z,42.08
2019-05-20T15:20:32.117Z,42.08
2019-05-20T15:23:05.829Z,42.32
2019-05-20T15:25:40.150Z,42.32
2019-05-20T15:28:14.970Z,42.42
2019-05-20T15:30:49.816Z,42.87
2019-05-20T15:33:23.679Z,43.23
2019-05-20T15:35:59.374Z,44.29
2019-05-20T15:38:53.516Z,43.84
2019-05-20T15:41:27.202Z,43.44
2019-05-20T15:44:02.497Z,43.79
2019-05-20T15:46:36.251Z,44.01
2019-05-20T15:49:12.001Z,44.66
2019-05-20T15:51:46.722Z,45.17
2019-05-20T15:54:21.935Z,45.29
2019-05-20T15:56:58.435Z,45.86
2019-05-20T15:59:45.519Z,45.45
2019-05-20T16:02:09.231Z,45.35
2019-05-20T16:04:44.117Z,45.55
2019-05-20T16:07:18.388Z,46.18
2019-05-20T16:09:52.576Z,47.23
2019-05-20T16:12:27.387Z,47.91
2019-05-20T16:15:02.525Z,48.56
2019-05-20T16:17:36.277Z,48.84
2019-05-20T16:20:11.777Z,48.43
2019-05-20T16:22:45.785Z,48.89
2019-05-20T16:25:19.606Z,49.32
2019-05-20T16:27:53.366Z,49.68
2019-05-20T16:30:27.186Z,49.87
2019-05-20T16:33:02.484Z,49.68
2019-05-20T16:35:37.270Z,49.78
2019-05-20T16:38:12.631Z,49.97
2019-05-20T16:40:46.594Z,50.44
2019-05-20T16:43:20.919Z,51.16
2019-05-20T16:45:56.193Z,51.44
2019-05-20T16:48:30.980Z,51.63
2019-05-20T16:51:04.837Z,51.67
2019-05-20T16:53:39.453Z,52.24
2019-05-20T16:56:15.534Z,52.07
2019-05-20T16:58:49.330Z,52.84
2019-05-20T17:01:27.032Z,52.85
2019-05-20T17:04:02.374Z,53.25
2019-05-20T17:06:36.960Z,53.47
2019-05-20T17:09:11.592Z,53.87
2019-05-20T17:11:47.786Z,53.92
2019-05-20T17:14:21.620Z,54.61
2019-05-20T17:16:56.172Z,55.35
2019-05-20T17:19:33.644Z,57.69
2019-05-20T17:22:07.594Z,58.19
2019-05-20T17:24:43.765Z,60.92
2019-05-20T17:27:18.925Z,61.55
2019-05-20T17:30:03.991Z,62.08
2019-05-20T17:32:38.771Z,62.94
2019-05-20T17:35:13.267Z,65.62
2019-05-20T17:37:48.295Z,65.32
2019-05-20T17:40:22.975Z,64.98
2019-05-20T17:42:59.186Z,65.56
2019-05-20T17:45:35.282Z,65.99
2019-05-20T17:48:10.283Z,66.98
2019-05-20T17:50:44.923Z,67.93
2019-05-20T17:53:26.488Z,68.87
2019-05-20T17:56:03.269Z,68.34
2019-05-20T17:58:39.486Z,68.70
2019-05-20T18:01:16.208Z,70.55
2019-05-20T18:03:51.841Z,69.20
2019-05-20T18:06:27.015Z,69.52
2019-05-20T18:09:04.895Z,70.15
2019-05-20T18:11:39.199Z,69.31
2019-05-20T18:14:13.840Z,69.44
2019-05-20T18:16:48.990Z,68.80
2019-05-20T18:23:27.659Z,69.17
2019-05-20T18:26:03.629Z,69.34
2019-05-20T18:28:38.712Z,70.07
2019-05-20T18:31:31.252Z,71.55
2019-05-20T18:33:53.877Z,72.04
2019-05-20T18:36:29.092Z,71.92
2019-05-20T18:39:08.441Z,73.09
2019-05-20T18:41:46.163Z,73.29
2019-05-20T18:44:22.057Z,74.01
2019-05-20T18:47:02.409Z,75.12
2019-05-20T18:49:42.590Z,75.05
2019-05-20T18:52:16.785Z,76.97
2019-05-20T18:54:51.227Z,76.60
2019-05-20T18:57:27.555Z,76.12
2019-05-20T19:00:04.467Z,75.40
2019-05-20T19:02:40.746Z,75.83
2019-05-20T19:05:18.095Z,75.59
2019-05-20T19:07:52.268Z,75.80
2019-05-20T19:10:27.382Z,75.81
2019-05-20T19:13:06.933Z,76.63
2019-05-20T19:15:41.825Z,76.92
2019-05-20T19:18:16.791Z,76.88
2019-05-20T19:20:51.603Z,76.42
2019-05-20T19:23:27.063Z,77.05
2019-05-20T19:26:02.792Z,77.48
2019-05-20T19:28:38.093Z,77.69
2019-05-20T19:31:12.361Z,78.03
2019-05-20T19:33:48.385Z,78.53
2019-05-20T19:36:25.811Z,78.24
2019-05-20T19:39:01.566Z,79.09
2019-05-20T19:41:44.351Z,79.18
2019-05-20T19:44:20.168Z,79.75
2019-05-20T19:46:55.788Z,80.22
2019-05-20T19:49:34.526Z,80.96
2019-05-20T19:52:08.542Z,82.17
2019-05-20T19:54:43.548Z,83.98
2019-05-20T19:57:18.173Z,85.61
2019-05-20T19:59:53.122Z,86.35
2019-05-20T20:02:26.848Z,87.45
2019-05-20T20:05:01.855Z,88.38
2019-05-20T20:07:36.009Z,88.70
2019-05-20T20:10:11.940Z,88.38
2019-05-20T20:12:45.809Z,89.52
2019-05-20T20:15:20.562Z,89.08
2019-05-20T20:17:54.434Z,88.67
2019-05-20T20:20:32.246Z,88.50
2019-05-20T20:23:11.956Z,89.67
2019-05-20T20:25:46.329Z,90.22
2019-05-20T20:28:21.578Z,90.25
2019-05-20T20:30:55.340Z,90.54
2019-05-20T20:33:29.489Z,89.54
2019-05-20T20:36:03.407Z,90.75
2019-05-20T20:38:38.259Z,90.44
2019-05-20T20:41:16.367Z,90.67
2019-05-20T20:43:50.614Z,90.68
2019-05-20T20:46:26.231Z,90.60
2019-05-20T20:49:01.182Z,89.86
2019-05-20T20:51:35.071Z,89.33
2019-05-20T20:54:10.675Z,88.96
2019-05-20T20:56:44.742Z,88.72
2019-05-20T20:59:18.900Z,89.19
2019-05-20T21:01:56.723Z,89.00
2019-05-20T21:04:28.518Z,89.31
2019-05-20T21:07:02.356Z,89.28
2019-05-20T21:09:36.154Z,89.49
2019-05-20T21:12:10.409Z,89.26
2019-05-20T21:14:45.334Z,89.67
2019-05-20T21:17:20.524Z,90.08
2019-05-20T21:19:54.334Z,89.96
2019-05-20T21:22:28.014Z,90.40
2019-05-20T21:25:01.661Z,89.61
2019-05-20T21:27:35.650Z,90.47
2019-05-20T21:30:10.975Z,89.37
2019-05-20T21:32:44.782Z,88.89
2019-05-20T21:35:19.542Z,88.86
2019-05-20T21:38:07.594Z,89.66
2019-05-20T21:40:42.726Z,89.70
2019-05-20T21:43:16.724Z,89.83
2019-05-20T21:45:53.390Z,89.69
2019-05-20T21:48:27.061Z,91.00
2019-05-20T21:51:04.289Z,91.45
2019-05-20T21:53:40.164Z,91.29
2019-05-20T21:56:16.302Z,90.28
2019-05-20T21:58:52.365Z,90.78
2019-05-20T22:01:29.338Z,90.60
2019-05-20T22:04:04.724Z,90.96
2019-05-20T22:06:38.740Z,91.64
2019-05-20T22:09:16.775Z,91.19
2019-05-20T22:11:51.531Z,91.89
2019-05-20T22:14:26.365Z,92.23
2019-05-20T22:17:02.221Z,92.31
2019-05-20T22:19:36.036Z,91.69
2019-05-20T22:22:32.520Z,91.50
2019-05-20T22:25:06.710Z,91.34
2019-05-20T22:27:42.391Z,91.37
2019-05-20T22:30:16.769Z,90.84
2019-05-20T22:32:50.567Z,91.88
2019-05-20T22:35:26.123Z,91.75
2019-05-20T22:38:01.029Z,92.83
2019-05-20T22:40:35.202Z,92.54
2019-05-20T22:43:11.510Z,92.41
2019-05-20T22:45:46.343Z,92.32
2019-05-20T22:48:22.030Z,93.19
2019-05-20T22:50:55.755Z,93.95
2019-05-20T22:53:29.918Z,94.05
2019-05-20T22:56:03.886Z,94.06
2019-05-20T22:58:56.972Z,94.73
2019-05-20T23:01:31.599Z,94.51
2019-05-20T23:04:06.848Z,95.00
2019-05-20T23:06:40.547Z,95.06
2019-05-20T23:09:15.114Z,95.83
2019-05-20T23:11:48.770Z,96.20
2019-05-20T23:14:23.598Z,95.44
2019-05-20T23:16:57.518Z,96.05
2019-05-20T23:19:32.453Z,95.61
2019-05-20T23:22:06.876Z,95.36
2019-05-20T23:24:40.827Z,96.05
2019-05-20T23:27:16.649Z,96.43
2019-05-20T23:29:50.935Z,96.05
2019-05-20T23:32:26.000Z,95.93
2019-05-20T23:35:00.016Z,96.35
2019-05-20T23:37:34.472Z,95.84
2019-05-20T23:40:09.876Z,96.09
2019-05-20T23:42:45.300Z,96.22
2019-05-20T23:45:19.334Z,96.10
2019-05-20T23:47:53.149Z,96.40
2019-05-20T23:50:27.482Z,96.51
2019-05-20T23:53:02.404Z,96.72
2019-05-20T23:55:36.409Z,96.82
2019-05-20T23:58:10.175Z,96.15
